Americus, GA (31719)

3:10 AM EDT on October 24, 2014 (GMT -0400)
Souther | Change Station
CLOSE
Current Station
Airport
Location: Americus,
Elevation: 469 ft
Nearby Weather Stations

Elev 469 ft 32.11 °N, 84.19 °W | Updated 15 minutes ago

Clear
Clear
50 °F
Feels Like 50 °F
N
0
Wind Variable Wind from North

Today
High -- | Low -- °F
--% Chance of Precip.
Yesterday
High -- | Low -- °F
Precip. -- in
7:47 AM 6:54 PM
New Moon, 0% visible
Pressure 30.05 in
Visibility 10.0 miles
Clouds Clear
Dew Point 48 °F
Humidity 94%
Rainfall 0.00 in
Snow Depth Not available.
UV 0 out of 12
Pollen 1.70 out of 12
Air Quality Not available.
Flu Activity Sporadic
METAR KACJ 240655Z AUTO 00000KT 10SM CLR 10/09 A3005 RMK AO2

More Conditions Fewer Conditions

Pressure 30.05 in
Visibility 10.0 miles
Clouds Clear
Dew Point 48 °F
Humidity 94%
Rainfall 0.00 in
Snow Depth Not available.
UV 0 out of 12
Pollen 1.70 out of 12
Air Quality Not available.
Flu Activity Sporadic
METAR KACJ 240655Z AUTO 00000KT 10SM CLR 10/09 A3005 RMK AO2

More Conditions Fewer Conditions

10-Day Weather Forecast

Almanac

Astronomy

Oct. 24, 2014 Rise Set
Actual Time 7:47 AM EDT 6:54 PM EDT
Civil Twilight 7:22 AM EDT 7:19 PM EDT
Nautical Twilight 6:53 AM EDT 7:48 PM EDT
Astronomical Twilight 6:25 AM EDT 8:16 PM EDT
Moon 8:23 AM EDT 7:36 PM EDT
Length of Visible Light 11h 57m
Length of Day
11h 07m
Tomorrow will be 1m 48s shorter.
New Moon, 0% of the Moon is Illuminated
Today
New Moon
Oct 30
First Quarter
Nov 6
Full
Nov 14
Last Quarter
Nov 22
New

Today's Extremes

State Highs State Lows

Community

WunderPhotos

Upload Photos

1,764,510 photos uploaded!

WunderBlogs® & News

Nearby

Snow Depth

Station Depth Elevation
No new snow has been reported.

Earthquake Activity

City Distance Mag. Time & Date
No recent earthquake activity has been reported nearby.
Minimum magnitude displayed is 2.5.

Coastal Water Temperatures

Place Temperature
No Stations Reporting

Nearby Weather Stations